Time;durP1;ratioP1;P1;durP2;ratioP2;P2;SDS_P1;SDS_P2;PMS_P1;PMS_P2;Temp;Humidity;BMP_temperature;BMP_pressure;BME280_temperature;BME280_humidity;BME280_pressure;Samples;Min_cycle;Max_cycle;Signal;HPM_P1;HPM_P2
2023/07/10 00:01:28;;;;;;;5.93;2.35;;;;;;;25.36;54.95;101579.00;5072954;28;20032;-49
2023/07/10 00:03:55;;;;;;;5.20;2.22;;;;;;;25.33;55.37;101580.59;5073204;28;20045;-51
2023/07/10 00:06:23;;;;;;;6.35;2.70;;;;;;;25.42;54.89;101580.25;5072281;28;20048;-53
2023/07/10 00:08:51;;;;;;;6.90;2.75;;;;;;;25.39;55.00;101584.69;5073012;28;20045;-51
2023/07/10 00:11:28;;;;;;;6.65;2.67;;;;;;;25.41;55.04;101581.47;5071478;28;20059;-49
2023/07/10 00:13:56;;;;;;;6.60;2.63;;;;;;;25.46;54.77;101584.75;5089017;28;20074;-50
2023/07/10 00:16:25;;;;;;;7.97;2.42;;;;;;;25.50;55.15;101579.13;5073221;28;20055;-50
2023/07/10 00:18:52;;;;;;;7.40;2.80;;;;;;;25.52;55.29;101585.19;5074716;28;20423;-49
2023/07/10 00:21:20;;;;;;;7.32;2.80;;;;;;;25.43;55.51;101596.81;5070574;28;20057;-47
2023/07/10 00:23:48;;;;;;;7.70;2.50;;;;;;;25.45;55.37;101590.78;5094810;28;20060;-46
2023/07/10 00:26:25;;;;;;;5.60;2.45;;;;;;;25.37;55.42;101589.09;5079840;28;20053;-50
2023/07/10 00:28:55;;;;;;;5.57;2.35;;;;;;;25.42;55.63;101591.53;5078338;28;20055;-46
2023/07/10 00:31:26;;;;;;;7.72;2.85;;;;;;;25.47;55.58;101599.66;5072363;28;20056;-52
2023/07/10 00:33:54;;;;;;;8.15;2.85;;;;;;;25.40;55.39;101596.81;5072601;28;20048;-50
2023/07/10 00:36:33;;;;;;;8.10;2.85;;;;;;;25.39;55.70;101589.53;5087539;28;20052;-50
2023/07/10 00:39:30;;;;;;;7.60;2.47;;;;;;;25.42;55.78;101597.19;5063634;28;20071;-51
2023/07/10 00:42:04;;;;;;;8.63;2.45;;;;;;;25.59;55.17;101588.06;5070937;28;20067;-47
2023/07/10 00:44:35;;;;;;;5.22;2.58;;;;;;;25.59;54.79;101596.50;5095102;28;20059;-53
2023/07/10 00:47:32;;;;;;;5.70;2.67;;;;;;;25.27;56.14;101596.28;5079061;28;20052;-49
2023/07/10 00:50:08;;;;;;;7.68;2.60;;;;;;;25.24;56.53;101607.53;5075655;28;20195;-49
2023/07/10 00:52:45;;;;;;;5.93;2.30;;;;;;;25.19;56.52;101594.59;5094673;28;20044;-49
2023/07/10 00:55:19;;;;;;;5.90;2.63;;;;;;;25.20;56.26;101595.41;5075597;28;20057;-49
2023/07/10 00:57:50;;;;;;;5.88;2.10;;;;;;;25.16;56.47;101592.56;5082720;28;20056;-47
2023/07/10 01:00:20;;;;;;;5.40;2.42;;;;;;;25.15;56.83;101587.31;5059757;28;20051;-52
2023/07/10 01:02:48;;;;;;;6.32;2.70;;;;;;;25.11;56.77;101583.63;5077498;28;20166;-48
2023/07/10 01:05:17;;;;;;;6.22;2.70;;;;;;;25.05;56.76;101582.41;5077157;28;20049;-50
2023/07/10 01:07:56;;;;;;;8.48;2.92;;;;;;;25.10;56.73;101582.84;5110478;27;20071;-51
2023/07/10 01:10:24;;;;;;;8.52;2.80;;;;;;;25.13;56.42;101584.06;5079447;28;20416;-52
2023/07/10 01:12:51;;;;;;;6.82;2.67;;;;;;;25.15;56.84;101576.84;5082513;28;20401;-51
2023/07/10 01:15:19;;;;;;;7.32;2.90;;;;;;;25.08;56.72;101573.97;5077447;28;20060;-52
2023/07/10 01:17:47;;;;;;;7.43;2.95;;;;;;;25.21;56.72;101585.75;5081401;28;20064;-49
2023/07/10 01:20:39;;;;;;;6.43;2.72;;;;;;;25.33;55.67;101582.63;5111362;27;20055;-49
2023/07/10 01:23:07;;;;;;;5.40;2.55;;;;;;;25.18;56.52;101578.88;5078746;28;20566;-52
2023/07/10 01:25:48;;;;;;;7.95;3.20;;;;;;;25.38;55.62;101577.44;5102662;28;20044;-49
2023/07/10 01:28:18;;;;;;;5.78;2.60;;;;;;;25.31;56.01;101573.72;5092567;28;20056;-47
2023/07/10 01:30:47;;;;;;;9.25;3.08;;;;;;;25.19;56.02;101579.69;5066550;28;20048;-51
2023/07/10 01:33:31;;;;;;;5.57;2.53;;;;;;;25.17;56.34;101584.91;5081937;28;20052;-51
2023/07/10 01:36:00;;;;;;;6.43;3.00;;;;;;;25.10;56.22;101594.13;5056749;28;20049;-54
2023/07/10 01:38:31;;;;;;;5.68;2.95;;;;;;;25.05;56.81;101588.03;5075513;28;20048;-50
2023/07/10 01:41:02;;;;;;;9.80;3.13;;;;;;;24.99;56.84;101589.59;5058052;28;20515;-50
2023/07/10 01:43:30;;;;;;;6.25;2.60;;;;;;;25.02;56.95;101586.78;5069009;28;20048;-51
2023/07/10 01:45:57;;;;;;;7.22;2.78;;;;;;;25.05;56.68;101596.50;5075384;28;20052;-50
2023/07/10 01:48:27;;;;;;;6.85;2.95;;;;;;;25.09;56.23;101595.31;5073342;28;20048;-50
2023/07/10 01:50:55;;;;;;;5.50;2.45;;;;;;;25.09;56.52;101591.72;5073487;28;20053;-51
2023/07/10 01:53:23;;;;;;;5.78;2.60;;;;;;;25.01;56.70;101598.47;5075104;28;20045;-48
2023/07/10 01:55:51;;;;;;;6.43;2.45;;;;;;;24.94;56.77;101581.50;5074261;28;20052;-51
2023/07/10 01:58:18;;;;;;;7.82;3.08;;;;;;;25.04;56.40;101594.84;5075837;28;20048;-51
2023/07/10 02:00:46;;;;;;;8.18;2.72;;;;;;;25.11;56.06;101592.91;5074359;28;20056;-47
2023/07/10 02:03:14;;;;;;;5.55;2.60;;;;;;;25.20;55.63;101595.41;5063758;28;20128;-51
2023/07/10 02:05:44;;;;;;;4.70;2.35;;;;;;;25.28;55.88;101591.44;5078471;28;20056;-52
2023/07/10 02:08:11;;;;;;;6.88;2.65;;;;;;;25.22;55.28;101593.00;5073749;28;20436;-49
2023/07/10 02:10:39;;;;;;;8.60;2.90;;;;;;;25.17;55.99;101596.19;5090390;28;20059;-52
2023/07/10 02:13:12;;;;;;;8.43;3.25;;;;;;;25.26;55.73;101594.63;5073111;28;20076;-50
2023/07/10 02:15:40;;;;;;;7.32;2.65;;;;;;;25.08;55.84;101599.34;5074059;28;20052;-50
2023/07/10 02:18:07;;;;;;;5.38;2.63;;;;;;;25.04;56.29;101592.84;5073069;28;20072;-51
2023/07/10 02:20:35;;;;;;;9.43;3.00;;;;;;;24.98;56.15;101593.63;5071888;28;20064;-51
2023/07/10 02:23:02;;;;;;;7.00;2.78;;;;;;;25.02;56.14;101594.47;5074340;28;20605;-48
2023/07/10 02:25:30;;;;;;;6.72;2.72;;;;;;;24.93;56.71;101591.16;5075076;28;20057;-49
2023/07/10 02:27:59;;;;;;;6.47;2.85;;;;;;;24.92;56.49;101593.16;5060145;28;20408;-51
2023/07/10 02:30:26;;;;;;;7.90;2.85;;;;;;;24.96;56.66;101590.38;5071619;28;20044;-46
2023/07/10 02:32:53;;;;;;;6.43;2.90;;;;;;;24.89;56.64;101591.13;5039660;28;20049;-49
2023/07/10 02:35:21;;;;;;;6.30;2.80;;;;;;;24.93;56.34;101599.63;5073615;28;20048;-50
2023/07/10 02:37:48;;;;;;;6.78;2.55;;;;;;;24.91;56.48;101596.38;5076708;28;20044;-47
2023/07/10 02:40:16;;;;;;;7.13;2.65;;;;;;;24.96;56.45;101604.47;5080330;28;20058;-48
2023/07/10 02:42:43;;;;;;;6.55;2.60;;;;;;;24.93;56.68;101599.63;5074239;28;20048;-48
2023/07/10 02:45:12;;;;;;;6.88;2.75;;;;;;;24.93;56.33;101599.63;5073706;28;20040;-49
2023/07/10 02:47:40;;;;;;;8.67;3.10;;;;;;;25.04;55.75;101604.13;5067910;28;20044;-51
2023/07/10 02:50:11;;;;;;;5.53;2.67;;;;;;;25.11;55.74;101603.38;5074363;28;20044;-47
2023/07/10 02:52:38;;;;;;;6.07;2.45;;;;;;;25.14;55.82;101602.63;5074229;28;20045;-49
2023/07/10 02:55:06;;;;;;;6.68;2.65;;;;;;;25.06;55.75;101603.75;5072917;28;20048;-52
2023/07/10 02:57:33;;;;;;;6.60;2.92;;;;;;;24.95;56.60;101602.88;5072854;28;20055;-51
2023/07/10 03:00:01;;;;;;;9.23;2.60;;;;;;;25.05;56.00;101610.59;5073621;28;20610;-53
2023/07/10 03:02:28;;;;;;;7.05;3.08;;;;;;;25.05;56.02;101610.59;5073370;28;20044;-48
2023/07/10 03:04:56;;;;;;;5.88;3.00;;;;;;;25.08;56.00;101612.63;5074890;28;20059;-53
2023/07/10 03:07:24;;;;;;;7.50;2.65;;;;;;;25.20;55.39;101612.31;5079992;28;20063;-49
2023/07/10 03:09:51;;;;;;;5.95;2.90;;;;;;;25.13;55.79;101615.09;5072868;28;20040;-48
2023/07/10 03:12:21;;;;;;;7.43;3.30;;;;;;;25.01;56.32;101615.38;5077392;28;20049;-51
2023/07/10 03:14:49;;;;;;;9.57;3.35;;;;;;;25.14;55.83;101616.72;5105914;28;20052;-49
2023/07/10 03:17:17;;;;;;;7.18;3.33;;;;;;;25.14;55.58;101611.06;5075430;28;20052;-51
2023/07/10 03:19:44;;;;;;;11.00;3.00;;;;;;;25.05;55.67;101614.22;5072636;28;20048;-47
2023/07/10 03:22:12;;;;;;;6.63;3.10;;;;;;;24.92;56.27;101618.53;5073319;28;20053;-52
2023/07/10 03:24:39;;;;;;;6.32;2.67;;;;;;;24.79;57.10;101620.03;5072210;28;20579;-48
2023/07/10 03:27:07;;;;;;;7.72;2.78;;;;;;;24.91;56.72;101630.19;5073223;28;20060;-49
2023/07/10 03:29:36;;;;;;;7.25;3.08;;;;;;;24.82;57.00;101629.72;5073716;28;20055;-48
2023/07/10 03:32:06;;;;;;;7.03;2.90;;;;;;;24.75;57.39;101624.81;5073294;28;20060;-49
2023/07/10 03:34:34;;;;;;;5.70;2.55;;;;;;;24.88;56.96;101626.13;5070139;28;20037;-54
2023/07/10 03:37:05;;;;;;;6.45;3.13;;;;;;;24.89;56.92;101621.31;5072856;28;20052;-49
2023/07/10 03:39:33;;;;;;;8.18;2.85;;;;;;;24.69;57.78;101637.63;5073695;28;20415;-46
2023/07/10 03:42:01;;;;;;;8.20;3.10;;;;;;;24.71;57.88;101628.78;5073065;28;20053;-51
2023/07/10 03:44:29;;;;;;;7.43;2.95;;;;;;;24.73;57.82;101632.84;5079687;28;20453;-54
2023/07/10 03:46:57;;;;;;;5.30;2.30;;;;;;;24.80;57.90;101630.09;5068060;28;20157;-52
2023/07/10 03:49:25;;;;;;;6.13;2.92;;;;;;;24.87;57.23;101643.44;5076723;28;20056;-51
2023/07/10 03:51:52;;;;;;;5.90;2.80;;;;;;;24.85;57.54;101635.38;5068633;28;20105;-53
2023/07/10 03:54:20;;;;;;;7.97;3.00;;;;;;;24.83;57.53;101637.78;5071785;28;20045;-48
2023/07/10 03:56:47;;;;;;;8.00;2.90;;;;;;;24.84;57.44;101638.59;5105307;28;20052;-51
2023/07/10 03:59:14;;;;;;;8.68;2.85;;;;;;;24.72;58.21;101642.50;5072711;28;20056;-52
2023/07/10 04:01:43;;;;;;;7.70;3.00;;;;;;;24.75;57.65;101638.09;5073711;28;20056;-49
2023/07/10 04:04:11;;;;;;;7.03;2.70;;;;;;;24.86;57.37;101641.84;5074266;28;20052;-53
2023/07/10 04:06:38;;;;;;;6.53;2.58;;;;;;;24.78;57.65;101645.75;5072208;28;20053;-52
2023/07/10 04:09:06;;;;;;;7.43;2.65;;;;;;;24.70;57.85;101638.44;5071949;28;20064;-49
2023/07/10 04:11:33;;;;;;;6.18;2.67;;;;;;;24.65;58.07;101653.69;5071923;28;20114;-50
2023/07/10 04:14:01;;;;;;;6.20;2.40;;;;;;;24.68;57.49;101644.44;5109353;27;20044;-48
2023/07/10 04:16:29;;;;;;;8.45;2.67;;;;;;;24.71;58.04;101651.31;5070330;28;20045;-50
2023/07/10 04:18:57;;;;;;;6.13;2.25;;;;;;;24.87;56.86;101651.91;5072061;28;20475;-47
2023/07/10 04:21:27;;;;;;;6.70;2.80;;;;;;;25.08;56.49;101661.38;5071933;28;20057;-53
2023/07/10 04:23:54;;;;;;;;;;;;;;;25.01;56.45;101664.13;5076062;28;20051;-48
2023/07/10 04:26:24;;;;;;;7.47;2.75;;;;;;;24.30;57.64;101670.94;5076822;28;19943;-49
2023/07/10 04:28:53;;;;;;;5.72;2.40;;;;;;;24.26;58.87;101670.13;5072810;28;20063;-53
2023/07/10 04:31:22;;;;;;;7.35;2.72;;;;;;;24.38;57.94;101671.84;5071744;28;20044;-51
2023/07/10 04:33:51;;;;;;;7.53;3.10;;;;;;;24.28;58.71;101672.53;5104846;28;20100;-52
2023/07/10 04:36:19;;;;;;;8.90;3.00;;;;;;;24.19;58.87;101675.66;5075888;28;20040;-52
2023/07/10 04:38:48;;;;;;;8.00;2.80;;;;;;;24.38;57.90;101677.50;5104559;28;20709;-52
2023/07/10 04:41:18;;;;;;;8.65;3.00;;;;;;;23.98;59.32;101680.97;5073137;28;20063;-49
2023/07/10 04:43:45;;;;;;;;;;;;;;;23.98;59.59;101677.31;5073123;28;20051;-49
2023/07/10 04:46:14;;;;;;;6.90;2.20;;;;;;;24.22;59.15;101674.88;5072415;28;19921;-50
2023/07/10 04:48:45;;;;;;;8.25;2.50;;;;;;;24.40;58.17;101673.09;5072838;28;20044;-63
2023/07/10 04:51:14;;;;;;;9.93;2.83;;;;;;;24.65;57.47;101681.84;5072958;28;20531;-61
2023/07/10 04:53:41;;;;;;;5.63;2.35;;;;;;;24.66;56.80;101682.63;5072294;28;20064;-62
2023/07/10 04:56:11;;;;;;;5.65;2.50;;;;;;;24.94;55.99;101683.78;5054865;28;20056;-62
2023/07/10 04:58:51;;;;;;;5.50;2.33;;;;;;;24.67;56.50;101679.44;5072917;28;20385;-63
2023/07/10 05:01:28;;;;;;;5.10;2.42;;;;;;;24.69;56.37;101687.53;5105078;28;20044;-50
2023/07/10 05:03:56;;;;;;;6.82;2.47;;;;;;;24.69;56.50;101693.16;5066993;28;20056;-50
2023/07/10 05:06:24;;;;;;;7.68;2.22;;;;;;;24.72;56.06;101689.59;5072059;28;20048;-51
2023/07/10 05:08:54;;;;;;;7.80;2.60;;;;;;;24.82;55.65;101686.06;5075332;28;20537;-50
2023/07/10 05:11:24;;;;;;;8.82;2.65;;;;;;;24.87;55.21;101686.53;5076427;28;20045;-50
2023/07/10 05:13:51;;;;;;;7.35;2.42;;;;;;;24.82;55.27;101684.06;5107307;28;20056;-52
2023/07/10 05:16:19;;;;;;;4.80;1.98;;;;;;;24.64;55.74;101682.22;5075832;28;20044;-54
2023/07/10 05:18:46;;;;;;;6.53;2.58;;;;;;;24.71;55.46;101690.78;5075864;28;20060;-51
2023/07/10 05:21:14;;;;;;;9.70;2.47;;;;;;;24.70;55.56;101694.81;5074805;28;20056;-54
2023/07/10 05:23:41;;;;;;;8.75;2.85;;;;;;;24.56;55.70;101695.44;5075992;28;20052;-54
2023/07/10 05:26:11;;;;;;;7.47;2.40;;;;;;;24.56;56.00;101689.78;5076124;28;20041;-53
2023/07/10 05:28:40;;;;;;;12.40;3.03;;;;;;;24.71;55.22;101687.97;5074920;28;20061;-50
2023/07/10 05:31:08;;;;;;;8.57;2.67;;;;;;;24.40;55.96;101690.00;5075967;28;20072;-49
2023/07/10 05:33:37;;;;;;;12.15;2.85;;;;;;;24.62;54.99;101688.22;5076030;28;20055;-52
2023/07/10 05:36:07;;;;;;;8.15;2.75;;;;;;;24.71;55.04;101679.50;5074365;28;20041;-49
2023/07/10 05:38:35;;;;;;;5.10;2.10;;;;;;;24.83;54.43;101687.69;5075330;28;20056;-51
2023/07/10 05:41:03;;;;;;;6.47;2.10;;;;;;;24.75;54.12;101686.81;5074785;28;20052;-49
2023/07/10 05:43:32;;;;;;;7.22;2.22;;;;;;;24.80;54.06;101688.47;5074740;28;20044;-51
2023/07/10 05:46:00;;;;;;;8.73;2.00;;;;;;;24.87;53.99;101683.72;5073667;28;20052;-51
2023/07/10 05:48:28;;;;;;;13.18;2.83;;;;;;;24.84;53.64;101689.31;5074578;28;20077;-49
2023/07/10 05:50:56;;;;;;;7.57;2.38;;;;;;;24.50;54.72;101694.94;5074480;28;20482;-56
2023/07/10 05:53:25;;;;;;;8.50;2.67;;;;;;;24.58;54.62;101693.03;5073847;28;20053;-48
2023/07/10 05:55:55;;;;;;;6.10;2.35;;;;;;;24.71;53.89;101688.78;5075636;28;20433;-49
2023/07/10 05:58:25;;;;;;;8.00;1.98;;;;;;;24.84;53.52;101687.31;5076141;28;20060;-54
2023/07/10 06:00:56;;;;;;;9.38;2.45;;;;;;;24.71;53.60;101687.97;5073883;28;20060;-49
2023/07/10 06:03:24;;;;;;;9.48;2.20;;;;;;;24.68;54.05;101686.72;5076880;27;20056;-52
2023/07/10 06:06:00;;;;;;;8.90;2.50;;;;;;;24.81;53.49;101687.28;5075104;28;20079;-56
2023/07/10 06:08:29;;;;;;;8.10;2.13;;;;;;;24.51;53.28;101684.50;5075415;28;20044;-50
2023/07/10 06:10:56;;;;;;;7.45;2.20;;;;;;;23.94;55.93;101682.09;5073895;28;20419;-49
2023/07/10 06:13:25;;;;;;;11.15;2.60;;;;;;;23.99;56.67;101690.22;5091086;28;20049;-51
2023/07/10 06:15:55;;;;;;;7.78;2.70;;;;;;;24.41;55.16;101688.78;5071945;28;20037;-48
2023/07/10 06:18:23;;;;;;;12.95;2.53;;;;;;;24.54;54.66;101692.19;5085213;28;20150;-49
2023/07/10 06:20:52;;;;;;;9.90;2.50;;;;;;;24.76;54.19;101693.28;5075421;28;20075;-49
2023/07/10 06:23:24;;;;;;;7.83;2.70;;;;;;;24.75;53.98;101697.28;5075286;28;20063;-47
2023/07/10 06:25:52;;;;;;;8.82;2.40;;;;;;;24.81;54.26;101695.75;5107014;28;20295;-55
2023/07/10 06:28:19;;;;;;;9.45;2.90;;;;;;;24.88;53.97;101690.19;5075153;28;20044;-52
2023/07/10 06:31:01;;;;;;;8.85;2.30;;;;;;;24.81;53.89;101678.81;5102521;28;20053;-48
2023/07/10 06:33:30;;;;;;;9.43;2.60;;;;;;;24.86;53.80;101687.72;5070662;28;20045;-56
2023/07/10 06:35:58;;;;;;;10.88;3.05;;;;;;;24.93;54.02;101689.81;5072992;28;20048;-48
2023/07/10 06:38:26;;;;;;;9.30;2.65;;;;;;;25.01;53.65;101683.88;5073586;28;20045;-51
2023/07/10 06:40:54;;;;;;;9.73;2.90;;;;;;;24.78;54.09;101688.84;5070062;28;20040;-46
2023/07/10 06:43:21;;;;;;;11.52;2.75;;;;;;;24.79;54.40;101684.84;5069853;28;20055;-50
2023/07/10 06:45:49;;;;;;;14.15;2.75;;;;;;;24.64;54.65;101683.03;5071883;28;20176;-51
2023/07/10 06:48:17;;;;;;;12.35;2.67;;;;;;;24.82;54.49;101684.06;5105098;28;20539;-47
2023/07/10 06:50:48;;;;;;;11.30;2.45;;;;;;;24.97;54.27;101687.84;5073876;28;20051;-52
2023/07/10 06:53:16;;;;;;;8.27;2.70;;;;;;;25.02;53.57;101676.22;5075044;28;20052;-53
2023/07/10 06:55:54;;;;;;;16.35;3.03;;;;;;;25.03;53.54;101680.66;5067889;28;20040;-53
2023/07/10 06:58:21;;;;;;;9.05;2.70;;;;;;;24.96;53.84;101677.75;5065527;28;20509;-51
2023/07/10 07:00:48;;;;;;;9.00;2.90;;;;;;;25.10;53.74;101675.09;5070249;28;20064;-53
2023/07/10 07:03:16;;;;;;;18.15;3.38;;;;;;;25.22;53.81;101680.44;5069760;28;20403;-51
2023/07/10 07:05:44;;;;;;;13.43;3.40;;;;;;;25.24;53.94;101680.84;5072050;28;20675;-48
2023/07/10 07:08:13;;;;;;;20.88;3.72;;;;;;;24.81;54.11;101679.63;5071492;28;20040;-49
2023/07/10 07:10:41;;;;;;;52.58;7.45;;;;;;;25.07;55.37;101682.28;5072103;28;20051;-52
2023/07/10 07:13:09;;;;;;;9.13;2.88;;;;;;;24.67;54.22;101681.47;5098745;27;20052;-52
2023/07/10 07:15:37;;;;;;;18.17;3.20;;;;;;;24.40;55.27;101678.75;5069036;28;20416;-52
2023/07/10 07:18:04;;;;;;;16.27;3.03;;;;;;;23.97;56.21;101678.53;5054303;28;20060;-51
2023/07/10 07:20:32;;;;;;;61.55;7.80;;;;;;;24.06;56.41;101677.06;5070411;28;20045;-52
2023/07/10 07:23:00;;;;;;;12.70;2.70;;;;;;;23.97;56.33;101682.13;5071301;28;20470;-51
2023/07/10 07:25:28;;;;;;;15.10;3.17;;;;;;;23.24;58.45;101679.78;5068337;28;20032;-53
2023/07/10 07:27:59;;;;;;;21.00;3.50;;;;;;;23.32;58.70;101672.31;5068665;28;20463;-51
2023/07/10 07:30:31;;;;;;;11.82;3.00;;;;;;;23.68;57.74;101679.28;5068381;28;20048;-51
2023/07/10 07:32:59;;;;;;;10.32;3.15;;;;;;;24.06;56.28;101676.28;5073070;27;20061;-54
2023/07/10 07:35:27;;;;;;;472.17;39.08;;;;;;;24.41;55.55;101679.53;5070125;28;20043;-52
2023/07/10 07:37:55;;;;;;;23.80;4.35;;;;;;;24.33;55.09;101681.47;5069697;28;20049;-47
2023/07/10 07:40:22;;;;;;;16.00;3.75;;;;;;;24.09;54.93;101669.88;5070200;28;20052;-53
2023/07/10 07:42:49;;;;;;;10.85;2.92;;;;;;;24.15;54.44;101671.16;5073119;28;20052;-53
2023/07/10 07:45:17;;;;;;;35.30;4.95;;;;;;;24.31;53.67;101666.13;5065707;28;20392;-50
2023/07/10 07:47:45;;;;;;;14.93;3.17;;;;;;;24.23;54.03;101670.06;5071865;28;20048;-53
2023/07/10 07:50:13;;;;;;;10.88;2.63;;;;;;;24.28;54.08;101664.09;5063149;28;20057;-51
2023/07/10 07:52:41;;;;;;;13.00;3.15;;;;;;;24.32;53.57;101659.31;5066990;28;20052;-51
2023/07/10 07:55:09;;;;;;;16.95;2.97;;;;;;;23.88;54.94;101663.94;5067877;28;22690;-51
2023/07/10 07:57:37;;;;;;;8.73;2.33;;;;;;;23.98;54.68;101658.44;5075965;28;20041;-65
2023/07/10 08:00:06;;;;;;;11.23;3.15;;;;;;;23.87;55.38;101659.50;5063618;28;20052;-64
2023/07/10 08:02:38;;;;;;;50.10;6.47;;;;;;;24.10;54.36;101663.88;5063313;28;20044;-65
2023/07/10 08:05:06;;;;;;;17.88;3.20;;;;;;;24.80;52.40;101649.81;5068671;28;20052;-51
2023/07/10 08:07:53;;;;;;;17.38;3.00;;;;;;;24.86;49.49;101648.25;5069032;28;20060;-52
2023/07/10 08:10:21;;;;;;;10.93;2.35;;;;;;;24.77;48.28;101655.44;5077554;28;20063;-49
2023/07/10 08:12:48;;;;;;;12.77;2.20;;;;;;;24.01;48.95;101648.44;5084317;28;20059;-53
2023/07/10 08:15:16;;;;;;;11.68;2.00;;;;;;;24.12;49.40;101643.78;5066450;28;20041;-53
2023/07/10 08:17:43;;;;;;;9.20;2.10;;;;;;;24.08;49.45;101651.34;5083366;28;20052;-68
2023/07/10 08:20:11;;;;;;;13.55;2.55;;;;;;;23.77;49.37;101652.53;5071285;28;20048;-66
2023/07/10 08:22:39;;;;;;;10.77;2.28;;;;;;;23.78;48.33;101654.13;5067552;28;20047;-64
2023/07/10 08:25:07;;;;;;;8.95;1.95;;;;;;;24.08;47.46;101654.97;5067310;28;20044;-64
2023/07/10 08:27:34;;;;;;;13.38;2.55;;;;;;;23.83;47.88;101650.19;5070360;28;20050;-54
2023/07/10 08:30:02;;;;;;;9.68;2.10;;;;;;;23.65;48.40;101647.13;5100249;28;20048;-50
2023/07/10 08:32:30;;;;;;;554.72;55.35;;;;;;;23.84;47.88;101655.44;5068290;28;20044;-50
2023/07/10 08:34:57;;;;;;;23.90;3.83;;;;;;;24.18;47.36;101654.31;5070377;28;20058;-49
2023/07/10 08:37:25;;;;;;;8.48;1.70;;;;;;;24.11;47.27;101653.44;5071144;28;20056;-66
2023/07/10 08:39:55;;;;;;;11.43;1.88;;;;;;;23.95;48.29;101652.78;5066147;28;20064;-66
2023/07/10 08:42:28;;;;;;;11.90;1.90;;;;;;;24.22;47.41;101652.34;5071926;28;20052;-69
2023/07/10 08:44:56;;;;;;;11.38;2.05;;;;;;;24.45;47.03;101657.84;5104098;27;20040;-69
2023/07/10 08:47:32;;;;;;;8.98;1.90;;;;;;;24.42;45.78;101656.63;5102123;28;20036;-69
2023/07/10 08:50:22;;;;;;;12.95;2.42;;;;;;;24.31;46.48;101652.06;5069063;28;20404;-65
2023/07/10 08:53:16;;;;;;;8.32;2.17;;;;;;;24.57;45.18;101651.13;5085767;28;20108;-65
2023/07/10 08:55:49;;;;;;;48.20;5.60;;;;;;;24.20;46.40;101649.09;5076678;28;20527;-59
2023/07/10 08:58:23;;;;;;;23.42;2.63;;;;;;;24.04;46.70;101654.13;5104834;27;20048;-53
2023/07/10 09:00:56;;;;;;;15.70;2.13;;;;;;;23.81;47.43;101652.56;5073342;28;20064;-51
2023/07/10 09:03:46;;;;;;;35.22;4.43;;;;;;;24.00;47.37;101655.28;5058845;28;20376;-50
2023/07/10 09:06:43;;;;;;;24.52;3.90;;;;;;;23.91;47.66;101652.72;5073874;28;20048;-54
2023/07/10 09:09:37;;;;;;;7.88;1.92;;;;;;;23.85;47.22;101647.81;5075638;28;20067;-55
2023/07/10 09:12:10;;;;;;;41.00;4.50;;;;;;;23.95;47.08;101645.16;5076080;28;20049;-65
2023/07/10 09:14:49;;;;;;;13.93;2.60;;;;;;;23.99;46.95;101642.38;5080228;28;20055;-55
2023/07/10 09:17:55;;;;;;;15.77;2.90;;;;;;;24.18;45.89;101645.06;5075468;28;20047;-66
2023/07/10 09:20:24;;;;;;;7.93;1.80;;;;;;;24.02;46.36;101644.44;5072391;28;20056;-63
2023/07/10 09:22:56;;;;;;;7.35;1.73;;;;;;;24.03;46.62;101649.69;5074055;28;20052;-51
2023/07/10 09:39:41;;;;;;;8.52;1.95;;;;;;;24.25;44.16;101639.53;5049868;27;20407;-67
2023/07/10 09:42:33;;;;;;;90.78;9.23;;;;;;;24.74;44.10;101636.47;5030635;27;20056;-64
2023/07/10 09:45:01;;;;;;;13.68;3.03;;;;;;;25.31;42.43;101636.59;5037125;27;20057;-65
2023/07/10 09:47:40;;;;;;;62.30;6.22;;;;;;;25.41;41.81;101635.06;5033733;27;20056;-65
2023/07/10 09:50:15;;;;;;;5.53;1.85;;;;;;;25.23;41.79;101634.09;5047090;27;20052;-66
2023/07/10 09:52:51;;;;;;;9.98;1.70;;;;;;;25.33;41.73;101625.72;5017255;27;20061;-55
2023/07/10 09:55:19;;;;;;;49.53;4.60;;;;;;;25.82;40.57;101619.59;5036816;28;20525;-47
2023/07/10 09:57:57;;;;;;;14.88;2.50;;;;;;;25.92;40.73;101632.19;5037735;27;20048;-55
2023/07/10 10:00:26;;;;;;;9.07;2.38;;;;;;;25.92;41.11;101620.88;5046397;27;20053;-51
2023/07/10 10:03:02;;;;;;;8.55;2.15;;;;;;;26.12;40.51;101625.03;5037067;28;20049;-50
2023/07/10 10:05:30;;;;;;;9.07;2.35;;;;;;;26.32;40.31;101626.31;5033332;28;20048;-64
2023/07/10 10:08:04;;;;;;;11.77;2.10;;;;;;;26.44;40.04;101625.97;5019768;28;20055;-66
2023/07/10 10:10:33;;;;;;;7.25;2.30;;;;;;;26.56;39.61;101628.41;5041918;27;20791;-65
2023/07/10 10:13:03;;;;;;;7.88;2.15;;;;;;;26.46;38.90;101632.03;5037143;28;20045;-66
2023/07/10 10:16:17;;;;;;;8.95;2.35;;;;;;;26.30;39.60;101625.91;5041042;27;20053;-66
2023/07/10 10:19:05;;;;;;;7.82;2.80;;;;;;;26.47;39.68;101627.97;5035041;28;20064;-64
2023/07/10 10:21:34;;;;;;;22.63;10.07;;;;;;;26.08;39.73;101629.88;5042506;28;20056;-66
2023/07/10 10:24:05;;;;;;;10.32;3.80;;;;;;;26.31;38.39;101633.19;5038838;28;20049;-65
2023/07/10 10:26:42;;;;;;;9.38;3.47;;;;;;;26.60;39.19;101620.75;5034632;28;20052;-64
2023/07/10 10:29:46;;;;;;;8.50;2.95;;;;;;;26.71;38.33;101629.28;5019179;27;20049;-64
2023/07/10 10:32:31;;;;;;;6.00;2.83;;;;;;;26.86;37.92;101617.59;5044752;28;20091;-65
2023/07/10 10:35:27;;;;;;;10.88;3.28;;;;;;;27.15;37.56;101610.72;5040864;28;20053;-65
2023/07/10 10:38:35;;;;;;;6.85;1.85;;;;;;;27.25;37.96;101609.91;5039785;28;20050;-66
2023/07/10 10:41:12;;;;;;;7.63;2.85;;;;;;;27.01;37.33;101613.56;5035820;28;20064;-65
2023/07/10 10:44:11;;;;;;;17.58;10.45;;;;;;;27.11;37.69;101614.78;5026537;27;20054;-64
2023/07/10 10:47:00;;;;;;;9.55;4.63;;;;;;;26.80;36.83;101613.53;5022390;28;20049;-67
2023/07/10 10:49:49;;;;;;;8.80;4.30;;;;;;;26.26;38.32;101617.44;5023674;28;20046;-66
2023/07/10 10:52:16;;;;;;;10.13;5.32;;;;;;;26.42;38.69;101611.41;5022143;28;20041;-65
2023/07/10 10:54:52;;;;;;;10.07;5.40;;;;;;;26.68;38.67;101605.44;5038468;27;20045;-65
2023/07/10 10:57:25;;;;;;;15.55;5.03;;;;;;;26.73;38.72;101604.25;5007246;28;20496;-65
2023/07/10 11:00:12;;;;;;;11.88;3.55;;;;;;;27.12;38.27;101605.06;5037781;27;20060;-64
2023/07/10 11:02:58;;;;;;;6.85;3.00;;;;;;;27.15;36.35;101599.41;5022509;28;20049;-65
2023/07/10 11:05:42;;;;;;;6.80;2.83;;;;;;;27.38;37.17;101599.84;5023181;28;20070;-65
2023/07/10 11:08:29;;;;;;;10.30;3.65;;;;;;;27.40;36.00;101597.41;5015552;27;20049;-65
2023/07/10 11:10:57;;;;;;;6.90;2.15;;;;;;;26.81;35.99;101603.88;5022523;28;20069;-52
2023/07/10 11:13:29;;;;;;;5.68;2.10;;;;;;;26.39;36.89;101600.91;5027227;28;20056;-57
2023/07/10 11:15:57;;;;;;;11.10;3.05;;;;;;;26.47;37.61;101596.91;5036813;27;20042;-52
2023/07/10 11:18:25;;;;;;;8.40;2.33;;;;;;;27.11;36.62;101592.16;5023936;28;20045;-51
2023/07/10 11:20:52;;;;;;;7.85;2.72;;;;;;;26.62;36.88;101582.38;5026089;28;20056;-48
2023/07/10 11:23:49;;;;;;;33.20;4.25;;;;;;;26.91;36.79;101583.25;5027642;28;20518;-52
2023/07/10 11:26:21;;;;;;;14.45;5.00;;;;;;;27.32;36.84;101578.81;5025400;28;20064;-53
2023/07/10 11:28:48;;;;;;;23.27;4.38;;;;;;;27.38;37.18;101573.56;5021415;28;20050;-51
2023/07/10 11:31:33;;;;;;;17.35;4.38;;;;;;;27.49;36.64;101572.34;5025149;28;20050;-52
2023/07/10 11:34:07;;;;;;;8.00;3.95;;;;;;;27.68;35.08;101571.06;5017961;28;20042;-54
2023/07/10 11:36:34;;;;;;;14.32;4.65;;;;;;;27.73;35.32;101574.28;5025481;27;20049;-50
2023/07/10 11:39:11;;;;;;;11.77;3.38;;;;;;;27.76;35.05;101552.03;5024164;28;20057;-56
2023/07/10 11:42:04;;;;;;;8.93;3.50;;;;;;;27.61;33.21;101548.44;5021688;28;20049;-51
2023/07/10 11:44:39;;;;;;;9.98;2.17;;;;;;;27.80;32.93;101544.31;5024310;28;20052;-50
2023/07/10 11:47:07;;;;;;;17.17;3.10;;;;;;;27.76;35.14;101552.03;5025133;28;20478;-52
2023/07/10 11:49:35;;;;;;;10.50;3.00;;;;;;;27.88;33.89;101549.53;5026397;28;20048;-51
2023/07/10 11:52:14;;;;;;;16.58;3.10;;;;;;;28.14;34.44;101542.56;5022000;28;20060;-48
2023/07/10 11:54:48;;;;;;;6.18;1.77;;;;;;;27.96;33.75;101548.31;5026977;28;20046;-51
2023/07/10 11:57:24;;;;;;;12.43;1.70;;;;;;;27.99;34.33;101547.50;5021163;28;20045;-51
2023/07/10 11:59:53;;;;;;;11.98;2.83;;;;;;;28.34;34.80;101540.81;5020803;28;20046;-50